createdAt,value
2023-01-18T00:00:59.650Z,18.70
2023-01-18T00:03:26.319Z,14.03
2023-01-18T00:05:54.830Z,16.60
2023-01-18T00:08:22.508Z,17.23
2023-01-18T00:10:49.223Z,17.33
2023-01-18T00:13:15.885Z,19.93
2023-01-18T00:15:42.615Z,18.77
2023-01-18T00:18:09.351Z,15.47
2023-01-18T00:20:36.129Z,20.17
2023-01-18T00:23:02.807Z,15.80
2023-01-18T00:25:30.153Z,17.83
2023-01-18T00:27:58.173Z,15.33
2023-01-18T00:30:27.872Z,21.70
2023-01-18T00:32:59.094Z,16.63
2023-01-18T00:35:26.713Z,18.17
2023-01-18T00:37:54.083Z,16.90
2023-01-18T00:40:22.402Z,19.43
2023-01-18T00:43:07.722Z,15.83
2023-01-18T00:45:34.479Z,17.33
2023-01-18T00:48:02.538Z,17.83
2023-01-18T00:50:29.484Z,18.83
2023-01-18T00:52:58.611Z,16.03
2023-01-18T00:55:26.322Z,17.43
2023-01-18T00:57:52.991Z,18.33
2023-01-18T01:00:20.366Z,17.47
2023-01-18T01:02:47.146Z,18.37
2023-01-18T01:05:38.352Z,18.50
2023-01-18T01:08:06.011Z,18.53
2023-01-18T01:10:35.744Z,17.73
2023-01-18T01:13:21.271Z,19.50
2023-01-18T01:16:06.925Z,16.77
2023-01-18T01:18:52.417Z,16.70
2023-01-18T01:21:38.058Z,17.93
2023-01-18T01:24:23.651Z,17.33
2023-01-18T01:26:50.415Z,19.43
2023-01-18T01:29:17.530Z,15.50
2023-01-18T01:31:44.245Z,17.37
2023-01-18T01:34:10.965Z,17.13
2023-01-18T01:36:37.696Z,17.40
2023-01-18T01:39:07.017Z,17.63
2023-01-18T01:41:35.026Z,18.70
2023-01-18T01:44:19.968Z,20.07
2023-01-18T01:46:49.720Z,17.17
2023-01-18T01:49:42.982Z,21.13
2023-01-18T01:52:13.421Z,19.27
2023-01-18T01:55:04.686Z,17.07
2023-01-18T01:57:37.088Z,16.47
2023-01-18T02:00:20.172Z,17.73
2023-01-18T02:03:01.343Z,17.43
2023-01-18T02:05:30.992Z,20.13
2023-01-18T02:08:02.556Z,25.90
2023-01-18T02:10:30.495Z,22.93
2023-01-18T02:12:58.735Z,17.60
2023-01-18T02:15:36.395Z,20.80
2023-01-18T02:18:32.486Z,22.93
2023-01-18T02:21:36.195Z,22.73
2023-01-18T02:24:17.536Z,23.83
2023-01-18T02:26:50.325Z,23.63
2023-01-18T02:29:28.918Z,24.47
2023-01-18T02:32:02.977Z,21.40
2023-01-18T02:34:35.614Z,21.40
2023-01-18T02:37:20.733Z,22.10
2023-01-18T02:39:56.658Z,25.10
2023-01-18T02:42:45.731Z,25.20
2023-01-18T02:45:49.725Z,22.80
2023-01-18T02:48:18.618Z,25.60
2023-01-18T02:50:45.290Z,29.20
2023-01-18T02:53:14.584Z,28.80
2023-01-18T02:55:53.939Z,21.90
2023-01-18T02:58:24.413Z,25.00
2023-01-18T03:01:09.784Z,21.50
2023-01-18T03:03:38.170Z,25.97
2023-01-18T03:06:08.047Z,25.93
2023-01-18T03:08:41.381Z,27.33
2023-01-18T03:11:14.177Z,34.20
2023-01-18T03:14:11.791Z,25.73
2023-01-18T03:16:57.939Z,26.40
2023-01-18T03:19:56.877Z,28.70
2023-01-18T03:22:46.513Z,25.73
2023-01-18T03:25:17.671Z,32.27
2023-01-18T03:28:05.068Z,31.60
2023-01-18T03:30:52.683Z,39.23
2023-01-18T03:33:41.522Z,28.03
2023-01-18T03:36:12.803Z,30.07
2023-01-18T03:38:43.046Z,33.40
2023-01-18T03:41:11.603Z,33.17
2023-01-18T03:43:41.720Z,27.40
2023-01-18T03:46:08.974Z,30.90
2023-01-18T03:48:37.036Z,32.37
2023-01-18T03:51:15.540Z,29.37
2023-01-18T03:54:03.443Z,31.97
2023-01-18T03:57:19.259Z,30.47
2023-01-18T03:59:47.287Z,30.10
2023-01-18T04:02:16.928Z,32.17
2023-01-18T04:04:43.608Z,28.33
2023-01-18T04:07:10.403Z,26.17
2023-01-18T04:09:37.167Z,34.10
2023-01-18T04:12:04.008Z,30.17
2023-01-18T04:14:30.957Z,32.93
2023-01-18T04:16:57.580Z,32.33
2023-01-18T04:19:24.330Z,32.03
2023-01-18T04:21:50.991Z,29.93
2023-01-18T04:24:17.682Z,31.43
2023-01-18T04:26:44.321Z,32.97
2023-01-18T04:29:10.992Z,33.57
2023-01-18T04:31:37.907Z,34.63
2023-01-18T04:34:04.583Z,29.37
2023-01-18T04:36:31.592Z,33.27
2023-01-18T04:38:59.276Z,33.37
2023-01-18T04:41:26.029Z,29.30
2023-01-18T04:43:52.680Z,29.17
2023-01-18T04:46:19.394Z,29.73
2023-01-18T04:48:50.667Z,26.57
2023-01-18T04:51:18.463Z,27.03
2023-01-18T04:53:45.562Z,26.13
2023-01-18T04:56:12.676Z,26.67
2023-01-18T04:58:39.378Z,28.43
2023-01-18T05:01:09.052Z,26.07
2023-01-18T05:03:38.274Z,30.60
2023-01-18T05:06:10.666Z,26.97
2023-01-18T05:08:41.006Z,26.00
2023-01-18T05:11:16.775Z,29.37
2023-01-18T05:13:46.025Z,25.43
2023-01-18T05:16:20.731Z,24.53
2023-01-18T05:18:47.869Z,28.20
2023-01-18T05:21:24.415Z,28.97
2023-01-18T05:23:51.061Z,28.50
2023-01-18T05:26:20.887Z,25.53
2023-01-18T05:28:48.630Z,36.20
2023-01-18T05:31:16.214Z,31.77
2023-01-18T05:33:42.968Z,29.70
2023-01-18T05:36:09.912Z,34.87
2023-01-18T05:38:36.757Z,30.70
2023-01-18T05:41:03.527Z,28.17
2023-01-18T05:43:30.686Z,31.33
2023-01-18T05:45:58.722Z,34.00
2023-01-18T05:48:26.150Z,31.77
2023-01-18T05:50:52.896Z,33.20
2023-01-18T05:53:22.442Z,36.20
2023-01-18T05:56:03.171Z,36.40
2023-01-18T05:58:29.893Z,31.60
2023-01-18T06:00:56.803Z,33.47
2023-01-18T06:03:25.275Z,30.03
2023-01-18T06:05:52.236Z,32.37
2023-01-18T06:08:19.546Z,31.23
2023-01-18T06:10:53.473Z,28.67
2023-01-18T06:13:20.837Z,28.07
2023-01-18T06:15:49.620Z,31.60
2023-01-18T06:18:16.475Z,28.00
2023-01-18T06:20:43.228Z,27.20
2023-01-18T06:23:09.909Z,29.87
2023-01-18T06:25:36.563Z,31.30
2023-01-18T06:28:05.021Z,25.10
2023-01-18T06:30:33.584Z,26.60
2023-01-18T06:33:04.900Z,31.73
2023-01-18T06:35:31.566Z,24.97
2023-01-18T06:37:58.972Z,27.53
2023-01-18T06:40:25.977Z,24.20
2023-01-18T06:42:52.636Z,27.10
2023-01-18T06:45:21.980Z,28.20
2023-01-18T06:47:49.474Z,25.40
2023-01-18T06:50:16.707Z,25.03
2023-01-18T06:52:44.492Z,26.37
2023-01-18T06:55:12.607Z,26.00
2023-01-18T06:57:39.819Z,24.93
2023-01-18T07:00:08.139Z,29.30
2023-01-18T07:02:35.902Z,24.63
2023-01-18T07:05:03.118Z,22.13
2023-01-18T07:07:30.048Z,23.83
2023-01-18T07:09:56.832Z,26.77
2023-01-18T07:12:23.658Z,28.30
2023-01-18T07:14:50.383Z,29.47
2023-01-18T07:17:17.028Z,27.80
2023-01-18T07:19:44.572Z,25.37
2023-01-18T07:22:12.290Z,26.37
2023-01-18T07:24:38.930Z,28.63
2023-01-18T07:27:06.137Z,28.50
2023-01-18T07:29:32.823Z,25.87
2023-01-18T07:32:01.068Z,26.17
2023-01-18T07:34:27.840Z,28.67
2023-01-18T07:36:54.963Z,28.70
2023-01-18T07:39:24.771Z,30.20
2023-01-18T07:41:51.450Z,26.57
2023-01-18T07:44:18.802Z,29.60
2023-01-18T07:46:45.774Z,29.27
2023-01-18T07:49:13.643Z,27.37
2023-01-18T07:51:41.255Z,26.87
2023-01-18T07:54:07.996Z,28.27
2023-01-18T07:56:34.740Z,34.93
2023-01-18T07:59:01.382Z,26.80
2023-01-18T08:01:28.243Z,29.40
2023-01-18T08:03:55.238Z,28.83
2023-01-18T08:06:27.156Z,27.90
2023-01-18T08:08:57.149Z,27.90
2023-01-18T08:11:24.127Z,27.90
2023-01-18T08:13:52.592Z,29.27
2023-01-18T08:16:19.321Z,26.10
2023-01-18T08:18:49.256Z,29.73
2023-01-18T08:21:15.965Z,27.60
2023-01-18T08:23:42.956Z,34.20
2023-01-18T08:26:12.492Z,28.77
2023-01-18T08:28:41.358Z,23.27
2023-01-18T08:31:17.054Z,28.90
2023-01-18T08:33:46.942Z,28.57
2023-01-18T08:36:16.382Z,33.27
2023-01-18T08:38:43.412Z,24.20
2023-01-18T08:41:10.205Z,28.23
2023-01-18T08:43:37.113Z,30.43
2023-01-18T08:46:03.934Z,31.53
2023-01-18T08:48:30.657Z,32.50
2023-01-18T08:51:01.207Z,34.27
2023-01-18T08:53:29.068Z,32.07
2023-01-18T08:55:55.729Z,24.60
2023-01-18T08:58:22.462Z,35.00
2023-01-18T09:00:50.663Z,28.03
2023-01-18T09:03:23.475Z,28.67
2023-01-18T09:05:50.161Z,32.80
2023-01-18T09:08:17.632Z,29.23
2023-01-18T09:10:45.175Z,33.10
2023-01-18T09:13:12.243Z,26.17
2023-01-18T09:15:39.098Z,32.13
2023-01-18T09:18:07.649Z,28.90
2023-01-18T09:20:36.181Z,27.23
2023-01-18T09:23:09.353Z,25.70
2023-01-18T09:25:37.203Z,29.93
2023-01-18T09:28:05.635Z,26.50
2023-01-18T09:30:33.094Z,30.63
2023-01-18T09:33:00.980Z,25.57
2023-01-18T09:35:27.965Z,26.33
2023-01-18T09:37:56.888Z,26.73
2023-01-18T09:40:40.999Z,25.07
2023-01-18T09:43:20.949Z,25.13
2023-01-18T09:45:48.208Z,20.43
2023-01-18T09:48:26.517Z,16.07
2023-01-18T09:50:54.155Z,18.03
2023-01-18T09:53:53.124Z,18.50
2023-01-18T09:56:27.728Z,18.03
2023-01-18T09:59:03.409Z,18.13
2023-01-18T10:01:33.052Z,15.87
2023-01-18T10:04:16.554Z,15.03
2023-01-18T10:06:52.956Z,16.20
2023-01-18T10:09:23.766Z,17.13
2023-01-18T10:12:14.537Z,18.17
2023-01-18T10:15:17.320Z,17.93
2023-01-18T10:17:45.053Z,14.87
2023-01-18T10:20:24.892Z,15.70
2023-01-18T10:23:15.609Z,16.73
2023-01-18T10:26:07.805Z,15.43
2023-01-18T10:28:56.922Z,16.17
2023-01-18T10:31:29.752Z,15.37
2023-01-18T10:33:59.190Z,12.63
2023-01-18T10:36:38.346Z,17.57
2023-01-18T10:39:28.091Z,15.37
2023-01-18T10:42:00.208Z,13.93
2023-01-18T10:44:28.110Z,18.03
2023-01-18T10:47:02.468Z,16.07
2023-01-18T10:49:40.825Z,18.43
2023-01-18T10:52:28.831Z,16.43
2023-01-18T10:54:58.011Z,15.50
2023-01-18T10:57:30.435Z,15.60
2023-01-18T10:59:58.402Z,16.90
2023-01-18T11:02:36.851Z,14.30
2023-01-18T11:05:30.352Z,15.27
2023-01-18T11:08:18.851Z,14.90
2023-01-18T11:10:45.633Z,15.17
2023-01-18T11:13:31.155Z,14.53
2023-01-18T11:16:24.469Z,15.30
2023-01-18T11:19:04.350Z,21.50
2023-01-18T11:21:41.027Z,16.93
2023-01-18T11:24:13.742Z,15.17
2023-01-18T11:27:05.810Z,14.00
2023-01-18T11:29:38.445Z,16.67
2023-01-18T11:32:14.624Z,19.57
2023-01-18T11:34:46.474Z,15.80
2023-01-18T11:37:35.325Z,14.33
2023-01-18T11:40:20.531Z,14.83
2023-01-18T11:42:50.207Z,16.07
2023-01-18T11:45:29.858Z,14.90
2023-01-18T11:48:17.688Z,22.40
2023-01-18T11:50:52.687Z,13.60
2023-01-18T11:53:43.898Z,11.67
2023-01-18T11:56:32.011Z,13.00
2023-01-18T11:59:00.885Z,14.13
2023-01-18T12:01:58.398Z,13.33
2023-01-18T12:04:40.325Z,14.40
2023-01-18T12:07:42.395Z,13.87
2023-01-18T12:10:18.559Z,13.70
2023-01-18T12:13:00.229Z,14.27
2023-01-18T12:15:51.947Z,14.03
2023-01-18T12:18:40.555Z,13.47
2023-01-18T12:21:14.501Z,11.57
2023-01-18T12:23:43.915Z,14.20
2023-01-18T12:26:22.518Z,10.97
2023-01-18T12:29:02.752Z,10.67
2023-01-18T12:31:47.546Z,15.07
2023-01-18T12:34:18.653Z,14.23
2023-01-18T12:37:30.037Z,14.13
2023-01-18T12:40:19.492Z,12.50
2023-01-18T12:43:12.498Z,11.57
2023-01-18T12:46:07.289Z,11.07
2023-01-18T12:48:42.873Z,13.00
2023-01-18T12:51:18.462Z,11.13
2023-01-18T12:54:16.399Z,10.07
2023-01-18T12:56:46.961Z,12.73
2023-01-18T12:59:30.514Z,13.90
2023-01-18T13:02:24.898Z,12.57
2023-01-18T13:05:12.654Z,15.33
2023-01-18T13:07:47.094Z,11.37
2023-01-18T13:10:19.961Z,10.77
2023-01-18T13:12:49.238Z,12.70
2023-01-18T13:15:40.869Z,11.87
2023-01-18T13:18:13.924Z,13.67
2023-01-18T13:20:54.950Z,15.77
2023-01-18T13:23:55.815Z,11.30
2023-01-18T13:26:29.992Z,12.07
2023-01-18T13:29:22.510Z,14.33
2023-01-18T13:31:49.835Z,10.80
2023-01-18T13:34:30.563Z,10.90
2023-01-18T13:37:13.432Z,9.20
2023-01-18T13:39:46.855Z,12.30
2023-01-18T13:42:22.418Z,13.83
2023-01-18T13:45:06.048Z,15.80
2023-01-18T13:47:35.791Z,10.57
2023-01-18T13:50:02.670Z,14.27
2023-01-18T13:52:35.566Z,13.90
2023-01-18T13:55:20.389Z,11.27
2023-01-18T13:57:55.456Z,12.60
2023-01-18T14:00:24.664Z,14.03
2023-01-18T14:02:56.594Z,12.27
2023-01-18T14:05:34.180Z,14.07
2023-01-18T14:08:02.554Z,10.73
2023-01-18T14:10:35.872Z,10.03
2023-01-18T14:13:07.989Z,12.20
2023-01-18T14:15:43.447Z,7.70
2023-01-18T14:18:21.424Z,8.63
2023-01-18T14:21:00.000Z,9.47
2023-01-18T14:23:46.422Z,9.07
2023-01-18T14:26:18.120Z,6.50
2023-01-18T14:28:57.258Z,10.13
2023-01-18T14:31:37.483Z,8.37
2023-01-18T14:34:29.290Z,14.23
2023-01-18T14:36:59.509Z,9.73
2023-01-18T14:39:28.291Z,7.03
2023-01-18T14:41:57.807Z,9.30
2023-01-18T14:44:31.007Z,9.30
2023-01-18T14:46:58.941Z,7.23
2023-01-18T14:49:44.697Z,10.80
2023-01-18T14:52:16.943Z,11.20
2023-01-18T14:55:01.959Z,8.27
2023-01-18T14:57:28.639Z,9.87
2023-01-18T15:00:03.534Z,11.37
2023-01-18T15:02:38.274Z,6.50
2023-01-18T15:05:17.229Z,6.63
2023-01-18T15:07:50.391Z,7.50
2023-01-18T15:10:19.054Z,8.00
2023-01-18T15:12:49.692Z,8.27
2023-01-18T15:15:22.032Z,9.30
2023-01-18T15:17:50.126Z,12.50
2023-01-18T15:20:17.280Z,10.37
2023-01-18T15:22:44.432Z,11.47
2023-01-18T15:25:30.704Z,7.17
2023-01-18T15:28:11.698Z,9.87
2023-01-18T15:30:50.325Z,10.27
2023-01-18T15:33:17.513Z,9.30
2023-01-18T15:35:46.562Z,8.60
2023-01-18T15:38:14.824Z,8.73
2023-01-18T15:40:53.257Z,8.87
2023-01-18T15:43:33.555Z,10.07
2023-01-18T15:46:01.050Z,9.77
2023-01-18T15:48:44.453Z,9.47
2023-01-18T15:51:11.288Z,8.50
2023-01-18T15:53:52.494Z,8.27
2023-01-18T15:56:25.365Z,10.77
2023-01-18T15:58:55.825Z,12.13
2023-01-18T16:01:29.278Z,8.17
2023-01-18T16:03:58.726Z,8.93
2023-01-18T16:06:28.732Z,9.27
2023-01-18T16:09:16.046Z,9.07
2023-01-18T16:12:01.076Z,8.53
2023-01-18T16:14:35.699Z,7.50
2023-01-18T16:17:15.183Z,8.37
2023-01-18T16:19:51.991Z,11.90
2023-01-18T16:22:21.411Z,11.47
2023-01-18T16:25:01.323Z,10.03
2023-01-18T16:27:30.921Z,9.43
2023-01-18T16:29:59.797Z,9.20
2023-01-18T16:32:29.303Z,9.00
2023-01-18T16:35:03.568Z,9.87
2023-01-18T16:37:30.771Z,12.97
2023-01-18T16:39:57.461Z,12.00
2023-01-18T16:42:36.920Z,13.27
2023-01-18T16:45:05.407Z,12.27
2023-01-18T16:47:32.040Z,9.50
2023-01-18T16:49:59.319Z,8.63
2023-01-18T16:52:27.305Z,9.60
2023-01-18T16:54:53.959Z,14.33
2023-01-18T16:57:22.620Z,11.83
2023-01-18T16:59:50.215Z,9.80
2023-01-18T17:02:16.964Z,13.53
2023-01-18T17:04:45.377Z,12.17
2023-01-18T17:07:12.347Z,9.87
2023-01-18T17:09:48.042Z,12.40
2023-01-18T17:12:15.256Z,9.80
2023-01-18T17:14:41.946Z,11.17
2023-01-18T17:17:10.115Z,9.73
2023-01-18T17:19:37.821Z,12.47
2023-01-18T17:22:06.376Z,10.97
2023-01-18T17:24:33.128Z,10.23
2023-01-18T17:27:01.198Z,11.70
2023-01-18T17:29:28.178Z,12.30
2023-01-18T17:31:54.822Z,15.73
2023-01-18T17:34:27.982Z,12.07
2023-01-18T17:36:55.990Z,9.97
2023-01-18T17:39:24.883Z,11.37
2023-01-18T17:41:58.678Z,12.23
2023-01-18T17:44:36.485Z,9.53
2023-01-18T17:47:03.876Z,12.33
2023-01-18T17:49:30.538Z,13.70
2023-01-18T17:51:57.179Z,13.07
2023-01-18T17:54:24.006Z,11.40
2023-01-18T17:56:50.691Z,11.90
2023-01-18T17:59:17.355Z,11.67
2023-01-18T18:01:44.228Z,9.23
2023-01-18T18:04:11.000Z,9.67
2023-01-18T18:06:40.449Z,12.23
2023-01-18T18:09:12.795Z,12.93
2023-01-18T18:11:39.442Z,9.90
2023-01-18T18:14:06.114Z,10.37
2023-01-18T18:16:34.457Z,12.10
2023-01-18T18:19:14.410Z,10.47
2023-01-18T18:21:45.248Z,13.00
2023-01-18T18:24:11.957Z,13.87
2023-01-18T18:26:38.654Z,10.67
2023-01-18T18:29:05.332Z,13.43
2023-01-18T18:31:36.462Z,13.83
2023-01-18T18:34:03.217Z,11.10
2023-01-18T18:36:29.851Z,15.53
2023-01-18T18:39:03.967Z,12.43
2023-01-18T18:41:30.725Z,10.93
2023-01-18T18:43:57.491Z,12.33
2023-01-18T18:46:24.528Z,11.60
2023-01-18T18:48:54.860Z,11.50
2023-01-18T18:51:22.538Z,13.67
2023-01-18T18:53:49.254Z,11.87
2023-01-18T18:56:16.021Z,16.80
2023-01-18T18:58:42.724Z,18.63
2023-01-18T19:01:30.073Z,15.80
2023-01-18T19:03:58.615Z,13.00
2023-01-18T19:06:25.967Z,17.23
2023-01-18T19:08:53.040Z,12.87
2023-01-18T19:11:20.298Z,14.50
2023-01-18T19:13:49.441Z,14.13
2023-01-18T19:16:16.990Z,11.27
2023-01-18T19:18:43.977Z,16.17
2023-01-18T19:21:11.093Z,15.47
2023-01-18T19:23:37.765Z,16.47
2023-01-18T19:26:04.576Z,15.27
2023-01-18T19:28:31.305Z,21.10
2023-01-18T19:31:02.556Z,16.90
2023-01-18T19:33:29.298Z,19.63
2023-01-18T19:35:55.973Z,15.97
2023-01-18T19:38:22.779Z,16.90
2023-01-18T19:40:49.476Z,17.13
2023-01-18T19:43:16.365Z,16.20
2023-01-18T19:45:43.103Z,18.70
2023-01-18T19:48:09.771Z,19.43
2023-01-18T19:50:36.456Z,15.47
2023-01-18T19:53:03.681Z,19.97
2023-01-18T19:55:30.641Z,16.73
2023-01-18T19:57:57.575Z,17.10
2023-01-18T20:00:25.665Z,19.57
2023-01-18T20:02:53.295Z,21.70
2023-01-18T20:05:20.517Z,20.23
2023-01-18T20:07:47.217Z,24.97
2023-01-18T20:10:14.099Z,26.07
2023-01-18T20:12:40.836Z,16.90
2023-01-18T20:15:07.901Z,19.50
2023-01-18T20:17:34.538Z,18.83
2023-01-18T20:20:01.224Z,19.27
2023-01-18T20:22:27.910Z,20.70
2023-01-18T20:24:54.764Z,20.70
2023-01-18T20:27:21.423Z,22.33
2023-01-18T20:29:48.104Z,21.10
2023-01-18T20:32:17.228Z,21.93
2023-01-18T20:34:47.815Z,20.00
2023-01-18T20:37:15.528Z,22.87
2023-01-18T20:39:42.521Z,21.27
2023-01-18T20:42:09.209Z,19.00
2023-01-18T20:44:36.023Z,21.17
2023-01-18T20:47:03.125Z,22.60
2023-01-18T20:49:37.825Z,22.43
2023-01-18T20:52:06.705Z,22.63
2023-01-18T20:54:34.882Z,27.07
2023-01-18T20:57:02.788Z,22.60
2023-01-18T20:59:29.461Z,27.17
2023-01-18T21:01:56.263Z,24.10
2023-01-18T21:04:23.039Z,23.47
2023-01-18T21:06:49.904Z,21.73
2023-01-18T21:09:16.952Z,20.20
2023-01-18T21:11:44.228Z,24.73
2023-01-18T21:14:11.648Z,23.53
2023-01-18T21:16:38.528Z,22.23
2023-01-18T21:19:05.267Z,25.60
2023-01-18T21:21:32.095Z,28.10
2023-01-18T21:23:59.312Z,24.27
2023-01-18T21:26:26.461Z,25.00
2023-01-18T21:28:53.664Z,30.90
2023-01-18T21:31:20.700Z,25.27
2023-01-18T21:33:47.521Z,24.97
2023-01-18T21:36:17.656Z,25.90
2023-01-18T21:38:44.649Z,25.90
2023-01-18T21:41:30.303Z,21.40
2023-01-18T21:44:15.629Z,25.20
2023-01-18T21:46:46.886Z,25.20
2023-01-18T21:49:52.056Z,22.60
2023-01-18T21:52:39.008Z,20.43
2023-01-18T21:55:05.966Z,23.27
2023-01-18T21:57:32.624Z,20.47
2023-01-18T21:59:59.330Z,21.97
2023-01-18T22:02:26.108Z,27.73
2023-01-18T22:05:03.667Z,22.93
2023-01-18T22:07:32.897Z,19.83
2023-01-18T22:10:05.133Z,21.37
2023-01-18T22:12:35.090Z,22.03
2023-01-18T22:15:03.226Z,24.07
2023-01-18T22:17:30.058Z,23.00
2023-01-18T22:19:56.836Z,21.70
2023-01-18T22:22:23.687Z,21.53
2023-01-18T22:24:50.334Z,23.13
2023-01-18T22:27:16.972Z,22.70
2023-01-18T22:29:43.607Z,21.67
2023-01-18T22:32:10.302Z,27.73
2023-01-18T22:34:37.026Z,25.03
2023-01-18T22:37:03.903Z,24.97
2023-01-18T22:39:30.690Z,26.87
2023-01-18T22:41:57.611Z,24.50
2023-01-18T22:44:24.293Z,26.93
2023-01-18T22:46:51.117Z,25.33
2023-01-18T22:49:17.959Z,25.00
2023-01-18T22:51:44.639Z,21.27
2023-01-18T22:54:11.300Z,23.77
2023-01-18T22:56:37.964Z,22.77
2023-01-18T22:59:04.627Z,25.30
2023-01-18T23:01:32.662Z,23.20
2023-01-18T23:04:02.220Z,22.00
2023-01-18T23:06:34.742Z,24.70
2023-01-18T23:09:01.508Z,19.53
2023-01-18T23:11:29.807Z,21.33
2023-01-18T23:14:16.876Z,22.57
2023-01-18T23:17:02.962Z,21.17
2023-01-18T23:19:30.988Z,19.23
2023-01-18T23:21:57.882Z,21.40
2023-01-18T23:24:24.638Z,19.37
2023-01-18T23:26:51.891Z,22.77
2023-01-18T23:29:19.992Z,19.93
2023-01-18T23:31:46.832Z,22.33
2023-01-18T23:34:13.562Z,23.07
2023-01-18T23:36:40.251Z,25.23
2023-01-18T23:39:25.438Z,24.43
2023-01-18T23:42:10.935Z,25.03
2023-01-18T23:44:56.279Z,27.73
2023-01-18T23:47:41.786Z,31.00
2023-01-18T23:50:27.807Z,32.93
2023-01-18T23:53:13.217Z,34.77
2023-01-18T23:55:41.442Z,30.83
2023-01-18T23:58:08.137Z,38.07
